Time;durP1;ratioP1;P1;durP2;ratioP2;P2;SDS_P1;SDS_P2;PMS_P1;PMS_P2;Temp;Humidity;BMP_temperature;BMP_pressure;BME280_temperature;BME280_humidity;BME280_pressure;Samples;Min_cycle;Max_cycle;Signal;HPM_P1;HPM_P2
2023/10/15 00:00:17;;;;;;;10.02;5.93;;;;;;;16.01;73.95;64646.06;5070389;28;20755;-52
2023/10/15 00:02:45;;;;;;;8.80;5.68;;;;;;;15.83;75.58;64624.25;5070282;28;20291;-52
2023/10/15 00:05:13;;;;;;;10.00;4.93;;;;;;;15.96;73.86;64641.09;5070736;28;20204;-52
2023/10/15 00:07:39;;;;;;;10.38;5.07;;;;;;;15.89;73.51;64635.94;5070584;28;20236;-55
2023/10/15 00:10:12;;;;;;;7.65;5.07;;;;;;;15.82;75.80;64628.78;5069176;28;20273;-54
2023/10/15 00:12:42;;;;;;;7.95;4.75;;;;;;;15.63;75.85;64607.91;5070087;28;20275;-54
2023/10/15 00:15:51;;;;;;;8.10;4.85;;;;;;;15.53;75.94;64596.34;5070441;28;20200;-55
2023/10/15 00:18:02;;;;;;;7.72;4.90;;;;;;;15.48;77.45;64591.38;5067060;28;20659;-55
2023/10/15 00:20:35;;;;;;;9.57;5.18;;;;;;;15.66;75.33;64610.63;5070302;28;20224;-55
2023/10/15 00:23:04;;;;;;;8.20;5.22;;;;;;;15.67;75.30;64609.75;5070265;28;20273;-54
2023/10/15 00:25:47;;;;;;;11.20;4.40;;;;;;;15.62;75.94;64606.78;5070435;28;20212;-52
2023/10/15 00:28:12;;;;;;;9.35;4.90;;;;;;;15.73;75.68;64615.81;5069972;28;20205;-52
2023/10/15 00:30:44;;;;;;;10.88;4.82;;;;;;;15.60;76.02;64604.03;5070424;28;20265;-53
2023/10/15 00:33:11;;;;;;;7.82;5.10;;;;;;;15.44;77.06;64586.44;5068763;28;20220;-54
2023/10/15 00:35:37;;;;;;;9.02;4.72;;;;;;;15.46;76.91;64586.66;5070387;28;20342;-58
2023/10/15 00:38:19;;;;;;;7.55;4.53;;;;;;;15.46;77.24;64588.63;5070011;28;20283;-56
2023/10/15 00:40:51;;;;;;;10.18;5.03;;;;;;;15.53;76.07;64596.91;5070099;28;20219;-55
2023/10/15 00:43:18;;;;;;;6.30;4.05;;;;;;;15.44;76.39;64583.88;5069899;28;20235;-52
2023/10/15 00:45:45;;;;;;;7.47;4.85;;;;;;;15.27;77.13;64565.72;5069682;28;20762;-53
2023/10/15 00:48:22;;;;;;;7.38;4.20;;;;;;;15.30;77.50;64571.00;5069025;28;20288;-51
2023/10/15 00:50:55;;;;;;;9.80;4.68;;;;;;;15.32;77.68;64571.22;5070342;28;20189;-51
2023/10/15 00:53:26;;;;;;;7.25;4.32;;;;;;;15.26;79.23;64566.63;5073150;28;20289;-53
2023/10/15 00:56:03;;;;;;;8.30;4.72;;;;;;;15.33;79.47;64574.84;5070951;28;20212;-55
2023/10/15 00:59:45;;;;;;;7.63;4.00;;;;;;;15.27;79.31;64568.25;5071889;28;20212;-55
2023/10/15 01:01:33;;;;;;;8.00;4.28;;;;;;;15.30;78.70;64569.03;5055600;28;20228;-55
2023/10/15 01:03:59;;;;;;;7.03;4.15;;;;;;;15.30;77.35;64571.00;5073481;28;20192;-55
2023/10/15 01:06:30;;;;;;;8.27;4.82;;;;;;;15.24;79.05;64559.34;5073086;28;20204;-55
2023/10/15 01:08:58;;;;;;;7.25;4.55;;;;;;;15.12;78.78;64549.78;5072595;28;20213;-55
2023/10/15 01:11:28;;;;;;;10.95;4.78;;;;;;;15.08;78.45;64542.84;5072505;28;20201;-55
2023/10/15 01:14:13;;;;;;;6.45;4.35;;;;;;;15.01;79.55;64539.66;5072981;28;20613;-53
2023/10/15 01:16:40;;;;;;;5.50;4.40;;;;;;;14.92;80.33;64529.78;5072926;28;20288;-52
2023/10/15 01:21:48;;;;;;;6.28;4.38;;;;;;;14.96;79.82;64534.75;5079507;22;20226;-52
2023/10/15 01:24:18;;;;;;;4.10;3.70;;;;;;;14.93;79.91;64525.81;5071477;28;20639;-53
2023/10/15 01:26:51;;;;;;;5.88;4.47;;;;;;;14.88;80.12;64525.38;5072645;28;20219;-53
2023/10/15 01:29:21;;;;;;;7.20;4.70;;;;;;;14.85;80.71;64520.09;5072693;28;20288;-53
2023/10/15 01:31:54;;;;;;;6.35;3.80;;;;;;;14.64;81.95;64497.03;5073130;28;20215;-54
2023/10/15 01:34:21;;;;;;;5.03;4.25;;;;;;;14.59;82.86;64493.50;5072607;28;20303;-55
2023/10/15 01:36:48;;;;;;;6.22;5.18;;;;;;;14.58;83.40;64492.97;5072600;28;20576;-53
2023/10/15 01:39:21;;;;;;;5.85;4.35;;;;;;;14.66;82.51;64498.66;5072580;28;20300;-53
2023/10/15 01:41:50;;;;;;;10.77;5.30;;;;;;;14.73;82.35;64506.91;5072644;28;20228;-53
2023/10/15 01:44:19;;;;;;;6.22;4.68;;;;;;;14.71;83.30;64504.16;5072830;28;20180;-53
2023/10/15 01:47:07;;;;;;;6.45;4.40;;;;;;;14.61;84.42;64496.25;5071268;28;20278;-53
2023/10/15 01:49:33;;;;;;;6.00;4.40;;;;;;;14.50;84.25;64481.66;5072431;28;20196;-53
2023/10/15 01:52:09;;;;;;;7.22;4.50;;;;;;;14.44;84.65;64477.59;5072603;28;20205;-54
2023/10/15 01:54:38;;;;;;;11.02;4.82;;;;;;;14.44;84.70;64477.59;5072430;28;20231;-53
2023/10/15 01:57:07;;;;;;;6.13;4.50;;;;;;;14.39;85.00;64469.53;5071195;28;20301;-53
2023/10/15 01:59:47;;;;;;;8.15;4.47;;;;;;;14.34;85.55;64464.06;5072259;28;20201;-52
2023/10/15 02:02:17;;;;;;;7.43;4.15;;;;;;;14.32;85.77;64461.88;5072040;28;20276;-55
2023/10/15 02:04:46;;;;;;;7.93;4.50;;;;;;;14.24;86.58;64453.06;5072324;28;20216;-52
2023/10/15 02:07:19;;;;;;;9.27;4.63;;;;;;;14.18;86.65;64449.53;5072318;28;20209;-52
2023/10/15 02:09:48;;;;;;;6.15;4.18;;;;;;;14.13;87.11;64443.50;5072570;28;20209;-54
2023/10/15 02:12:19;;;;;;;5.65;4.43;;;;;;;14.08;87.81;64436.00;5072162;28;20208;-54
2023/10/15 02:14:47;;;;;;;5.47;4.43;;;;;;;14.08;86.92;64438.56;5072261;28;20213;-54
2023/10/15 02:17:18;;;;;;;10.80;4.57;;;;;;;14.17;87.10;64445.34;5072360;28;20212;-53
2023/10/15 02:19:44;;;;;;;6.07;4.55;;;;;;;14.20;86.52;64451.72;5072147;28;20205;-51
2023/10/15 02:22:12;;;;;;;7.38;4.68;;;;;;;14.11;87.23;64441.31;5072259;28;20204;-53
2023/10/15 02:24:46;;;;;;;11.45;4.22;;;;;;;14.06;87.99;64435.78;5071846;28;20200;-56
2023/10/15 02:27:25;;;;;;;11.05;4.43;;;;;;;14.18;87.14;64449.53;5072073;28;20228;-53
2023/10/15 02:29:53;;;;;;;6.97;4.47;;;;;;;14.21;86.79;64452.84;5071903;28;20197;-53
2023/10/15 02:32:21;;;;;;;6.30;4.03;;;;;;;14.21;87.34;64450.31;5071687;28;20253;-53
2023/10/15 02:34:50;;;;;;;8.80;4.75;;;;;;;14.17;87.14;64447.91;5072016;28;20678;-52
2023/10/15 02:37:23;;;;;;;8.73;4.28;;;;;;;14.12;87.31;64437.88;5071655;28;20282;-52
2023/10/15 02:39:52;;;;;;;8.70;4.47;;;;;;;13.95;88.63;64424.28;5071890;28;20180;-52
2023/10/15 02:42:18;;;;;;;5.25;4.22;;;;;;;13.94;88.98;64420.63;5071569;28;20205;-52
2023/10/15 02:44:45;;;;;;;11.32;4.22;;;;;;;13.88;89.46;64414.06;5071432;28;20193;-52
2023/10/15 02:47:19;;;;;;;8.05;4.82;;;;;;;14.05;88.78;64434.72;5070274;28;20197;-52
2023/10/15 02:50:02;;;;;;;5.97;4.28;;;;;;;14.03;89.70;64429.97;5071522;28;20298;-53
2023/10/15 02:52:43;;;;;;;8.18;4.90;;;;;;;14.03;90.28;64433.06;5071303;28;20227;-52
2023/10/15 02:55:14;;;;;;;7.30;4.50;;;;;;;14.11;89.01;64441.31;5071389;28;20204;-52
2023/10/15 02:57:41;;;;;;;7.35;4.93;;;;;;;14.14;88.40;64442.59;5071393;28;20227;-53
2023/10/15 03:02:53;;;;;;;8.52;5.13;;;;;;;14.20;87.70;64451.72;5071968;28;20262;-53
2023/10/15 03:05:24;;;;;;;7.78;3.72;;;;;;;14.13;88.95;64446.03;5071269;28;20204;-56
2023/10/15 03:07:50;;;;;;;12.70;5.32;;;;;;;14.11;88.79;64441.84;5071462;28;20197;-53
2023/10/15 03:10:21;;;;;;;10.07;4.70;;;;;;;13.97;90.92;64420.84;5071487;28;20648;-53
2023/10/15 03:12:47;;;;;;;9.57;4.95;;;;;;;14.06;88.55;64436.34;5070453;28;20216;-54
2023/10/15 03:15:14;;;;;;;5.10;4.35;;;;;;;14.01;89.82;64430.31;5071098;28;20299;-53
2023/10/15 03:17:43;;;;;;;4.93;4.20;;;;;;;14.09;89.13;64439.09;5071047;28;20196;-54
2023/10/15 03:22:46;;;;;;;7.95;4.28;;;;;;;14.09;88.68;64439.66;5071508;28;20212;-55
2023/10/15 03:25:15;;;;;;;9.02;4.70;;;;;;;14.19;88.22;64447.56;5069613;28;20255;-55
2023/10/15 03:27:46;;;;;;;8.00;4.13;;;;;;;14.11;88.43;64441.31;5071327;28;20201;-55
2023/10/15 03:30:13;;;;;;;7.60;4.57;;;;;;;14.18;87.76;64447.00;5069557;28;20247;-59
2023/10/15 03:32:44;;;;;;;6.57;4.20;;;;;;;13.98;87.89;64425.03;5071087;28;20221;-53
2023/10/15 03:35:17;;;;;;;9.32;4.35;;;;;;;13.95;89.09;64421.19;5071031;28;20675;-53
2023/10/15 03:37:47;;;;;;;6.78;4.55;;;;;;;13.85;90.26;64413.31;5070785;28;20712;-54
2023/10/15 03:40:30;;;;;;;7.45;4.75;;;;;;;13.92;90.20;64420.41;5070727;28;20200;-54
2023/10/15 03:43:01;;;;;;;8.07;4.90;;;;;;;13.90;89.12;64415.69;5070736;28;20208;-54
2023/10/15 03:45:28;;;;;;;8.15;4.68;;;;;;;14.00;89.25;64429.75;5070775;28;20204;-54
2023/10/15 03:47:54;;;;;;;6.75;4.28;;;;;;;14.05;88.95;64432.19;5070950;28;20236;-54
2023/10/15 03:50:20;;;;;;;6.32;4.93;;;;;;;13.94;88.94;64420.09;5069413;28;20248;-54
2023/10/15 03:52:45;;;;;;;6.72;4.75;;;;;;;14.04;88.21;64431.06;5070869;28;20211;-53
2023/10/15 03:55:11;;;;;;;7.88;5.00;;;;;;;13.90;89.03;64418.78;5069238;28;20564;-53
2023/10/15 03:57:37;;;;;;;10.07;4.25;;;;;;;13.86;88.72;64414.38;5069089;28;20216;-53
2023/10/15 04:00:26;;;;;;;8.27;5.28;;;;;;;13.84;89.75;64412.19;5071021;28;20204;-53
2023/10/15 04:05:28;;;;;;;10.40;4.63;;;;;;;13.61;90.64;64383.88;5070523;28;20297;-56
2023/10/15 04:08:01;;;;;;;9.32;4.75;;;;;;;13.64;91.56;64385.16;5070833;28;20242;-55
2023/10/15 04:10:33;;;;;;;7.18;4.85;;;;;;;13.76;90.95;64402.84;5070625;28;20204;-56
2023/10/15 04:12:59;;;;;;;5.38;4.07;;;;;;;13.82;90.24;64410.00;5070585;28;20303;-54
2023/10/15 04:15:25;;;;;;;5.10;4.28;;;;;;;13.86;90.17;64413.84;5070287;28;20204;-54
2023/10/15 04:17:52;;;;;;;6.18;4.72;;;;;;;13.99;88.28;64428.13;5070653;28;20589;-55
2023/10/15 04:20:33;;;;;;;8.15;4.57;;;;;;;14.01;88.87;64430.31;5070259;28;20200;-55
2023/10/15 04:22:59;;;;;;;7.68;4.70;;;;;;;14.00;88.65;64427.22;5070327;28;20211;-56
2023/10/15 04:25:25;;;;;;;8.90;5.28;;;;;;;13.93;88.21;64421.53;5072574;28;20197;-55
2023/10/15 04:27:51;;;;;;;6.72;4.60;;;;;;;13.85;89.65;64412.75;5072498;28;20775;-55
2023/10/15 04:30:17;;;;;;;10.13;5.05;;;;;;;13.72;90.92;64396.47;5072357;28;20204;-54
2023/10/15 04:35:15;;;;;;;6.00;4.35;;;;;;;13.80;90.73;64409.78;5073435;28;20212;-54
2023/10/15 04:37:41;;;;;;;6.35;4.57;;;;;;;13.87;90.96;64412.41;5074017;28;20238;-53
2023/10/15 04:40:12;;;;;;;11.05;4.50;;;;;;;14.02;89.14;64431.41;5073548;28;20197;-54
2023/10/15 04:42:51;;;;;;;9.73;4.45;;;;;;;13.95;88.91;64424.28;5073766;28;20197;-53
2023/10/15 04:45:21;;;;;;;7.10;4.72;;;;;;;13.93;90.36;64419.56;5072101;28;20667;-54
2023/10/15 04:47:59;;;;;;;10.80;5.22;;;;;;;13.84;90.07;64406.56;5073292;28;20213;-53
2023/10/15 04:50:29;;;;;;;8.45;4.50;;;;;;;13.95;91.27;64421.19;5082578;22;20681;-53
2023/10/15 04:53:12;;;;;;;8.43;4.70;;;;;;;13.93;91.88;64421.53;5093352;28;20300;-53
2023/10/15 04:55:40;;;;;;;8.02;4.93;;;;;;;13.95;91.89;64423.72;5093733;28;20669;-52
2023/10/15 04:58:05;;;;;;;8.85;4.85;;;;;;;13.95;91.06;64424.28;5093325;28;20226;-52
2023/10/15 05:00:33;;;;;;;6.03;4.30;;;;;;;13.93;90.42;64419.56;5093285;28;20212;-54
2023/10/15 05:02:58;;;;;;;7.43;4.53;;;;;;;13.92;91.39;64420.97;5093185;28;20204;-54
2023/10/15 05:05:24;;;;;;;10.90;5.35;;;;;;;13.91;91.88;64421.88;5093305;28;20269;-54
2023/10/15 05:07:49;;;;;;;8.43;7.05;;;;;;;13.91;92.18;64417.34;5093137;28;20617;-54
2023/10/15 05:10:15;;;;;;;32.72;15.95;;;;;;;13.65;93.25;64391.34;5093179;28;20242;-54
2023/10/15 05:12:40;;;;;;;22.98;11.50;;;;;;;13.62;94.26;64387.47;5093228;28;20211;-53
2023/10/15 05:15:13;;;;;;;23.27;11.52;;;;;;;13.68;93.45;64394.63;5093109;28;20192;-54
2023/10/15 05:17:42;;;;;;;21.55;12.57;;;;;;;13.73;92.30;64397.59;5093083;28;20264;-53
2023/10/15 05:20:11;;;;;;;26.42;12.68;;;;;;;13.74;92.97;64398.13;5093575;28;20643;-55
2023/10/15 05:22:37;;;;;;;29.23;13.07;;;;;;;13.80;91.55;64405.25;5093149;28;20207;-54
2023/10/15 05:25:04;;;;;;;21.35;12.77;;;;;;;13.85;90.97;64413.31;5093519;28;20200;-54
2023/10/15 05:27:32;;;;;;;24.73;11.82;;;;;;;13.86;92.43;64416.38;5092867;28;20200;-53
2023/10/15 05:29:58;;;;;;;15.73;9.13;;;;;;;13.96;91.44;64425.38;5092846;28;20199;-55
2023/10/15 05:32:24;;;;;;;16.55;8.93;;;;;;;14.11;89.88;64438.75;5092745;28;20291;-54
2023/10/15 05:34:50;;;;;;;17.63;9.00;;;;;;;14.06;90.33;64435.78;5092925;28;20656;-55
2023/10/15 05:37:16;;;;;;;11.70;7.40;;;;;;;13.96;90.71;64422.28;5091897;28;20212;-54
2023/10/15 05:39:41;;;;;;;15.02;7.63;;;;;;;13.90;92.61;64418.22;5092608;28;20192;-53
2023/10/15 05:42:07;;;;;;;12.60;6.75;;;;;;;13.86;93.17;64414.38;5092806;28;20363;-53
2023/10/15 05:44:35;;;;;;;11.82;6.78;;;;;;;13.98;91.43;64427.56;5074720;28;20240;-52
2023/10/15 05:47:00;;;;;;;9.98;6.50;;;;;;;14.24;89.85;64455.59;5092658;28;20208;-53
2023/10/15 05:49:26;;;;;;;12.25;6.82;;;;;;;14.25;88.95;64454.16;5074576;28;20185;-52
2023/10/15 05:51:51;;;;;;;8.45;5.88;;;;;;;14.21;90.99;64452.84;5092499;28;20596;-53
2023/10/15 05:54:17;;;;;;;13.05;5.82;;;;;;;14.01;92.45;64430.31;5092816;28;20216;-52
2023/10/15 05:56:43;;;;;;;16.05;6.68;;;;;;;14.20;92.02;64451.19;5092489;28;20620;-53
2023/10/15 05:59:08;;;;;;;11.45;5.78;;;;;;;14.09;92.31;64439.66;5092464;28;20207;-52
2023/10/15 06:01:34;;;;;;;7.40;5.43;;;;;;;14.24;91.10;64453.59;5092368;28;20592;-53
2023/10/15 06:03:59;;;;;;;10.65;6.10;;;;;;;14.24;90.21;64453.59;5074385;28;20252;-53
2023/10/15 06:06:25;;;;;;;8.57;5.90;;;;;;;14.14;89.96;64440.06;5092322;28;20208;-53
2023/10/15 06:08:52;;;;;;;7.60;5.82;;;;;;;14.24;91.13;64453.06;5092585;28;20231;-52
2023/10/15 06:11:17;;;;;;;10.43;5.72;;;;;;;14.18;90.24;64449.53;5092273;28;20279;-54
2023/10/15 06:13:43;;;;;;;8.32;5.45;;;;;;;14.60;100.00;64492.06;5092739;28;20765;-53
2023/10/15 06:16:08;;;;;;;10.45;5.65;;;;;;;14.65;91.02;64500.66;5092121;28;20196;-53
2023/10/15 06:18:34;;;;;;;10.05;5.43;;;;;;;14.68;90.66;64500.88;5092387;28;20593;-52
2023/10/15 06:20:59;;;;;;;12.85;6.30;;;;;;;14.63;90.97;64495.91;5074349;28;20591;-53
2023/10/15 06:23:26;;;;;;;10.70;6.18;;;;;;;14.70;89.46;64505.59;5092037;28;20803;-54
2023/10/15 06:25:51;;;;;;;9.57;6.55;;;;;;;14.75;87.96;64508.56;5092076;28;20215;-59
2023/10/15 06:28:17;;;;;;;9.82;5.75;;;;;;;14.75;87.49;64506.56;5092071;28;20215;-52
2023/10/15 06:30:43;;;;;;;10.18;5.93;;;;;;;14.73;86.52;64504.38;5091994;28;20608;-53
2023/10/15 06:33:09;;;;;;;7.63;5.97;;;;;;;14.80;86.10;64514.63;5092129;28;20219;-51
2023/10/15 06:35:35;;;;;;;11.38;5.60;;;;;;;14.83;86.72;64519.88;5092033;28;20591;-53
2023/10/15 06:38:01;;;;;;;12.10;7.45;;;;;;;14.92;86.66;64524.72;5091810;28;20208;-53
2023/10/15 06:40:28;;;;;;;11.07;6.60;;;;;;;14.85;87.51;64522.06;5091708;28;20693;-53
2023/10/15 06:43:00;;;;;;;12.70;6.55;;;;;;;14.93;87.59;64530.88;5091741;28;20266;-52
2023/10/15 06:45:27;;;;;;;11.40;6.47;;;;;;;14.84;88.15;64518.44;5091929;28;20200;-54
2023/10/15 06:47:53;;;;;;;12.93;6.03;;;;;;;14.90;88.34;64522.50;5091719;28;20203;-52
2023/10/15 06:50:19;;;;;;;9.05;6.15;;;;;;;15.02;87.59;64538.78;5091973;28;20192;-52
2023/10/15 06:52:45;;;;;;;9.35;7.43;;;;;;;15.31;86.30;64569.59;5091662;28;20204;-52
2023/10/15 06:55:13;;;;;;;10.15;5.60;;;;;;;15.47;85.85;64590.28;5091654;28;20228;-53
2023/10/15 06:57:39;;;;;;;12.23;6.07;;;;;;;15.42;85.12;64584.22;5091653;28;20287;-55
2023/10/15 07:00:07;;;;;;;14.00;6.60;;;;;;;15.44;84.21;64586.44;5073770;28;20222;-54
2023/10/15 07:02:32;;;;;;;13.15;7.00;;;;;;;15.49;84.29;64589.97;5073088;28;20218;-54
2023/10/15 07:05:00;;;;;;;11.68;6.05;;;;;;;15.50;83.20;64593.03;5091797;28;20204;-55
2023/10/15 07:07:27;;;;;;;10.85;6.25;;;;;;;15.58;83.05;64601.81;5091207;28;20208;-55
2023/10/15 07:09:53;;;;;;;12.45;6.95;;;;;;;15.84;82.74;64631.00;5091416;28;20591;-52
2023/10/15 07:12:20;;;;;;;9.32;6.72;;;;;;;15.94;80.94;64641.44;5073352;28;20261;-53
2023/10/15 07:14:50;;;;;;;14.57;7.10;;;;;;;16.13;81.53;64659.25;5091568;28;20212;-58
2023/10/15 07:17:18;;;;;;;12.63;7.15;;;;;;;16.13;80.32;64659.25;5073249;28;20321;-53
2023/10/15 07:19:45;;;;;;;17.20;7.25;;;;;;;16.35;80.20;64686.56;5091576;28;20207;-53
2023/10/15 07:22:11;;;;;;;14.55;7.57;;;;;;;16.41;79.19;64690.06;5091281;28;20728;-52
2023/10/15 07:24:36;;;;;;;16.73;8.15;;;;;;;16.48;79.17;64700.88;5091296;28;20196;-52
2023/10/15 07:27:04;;;;;;;13.52;7.18;;;;;;;16.59;80.06;64710.47;5091184;28;20280;-53
2023/10/15 07:29:48;;;;;;;12.88;7.30;;;;;;;16.83;78.47;64738.34;5072845;28;20230;-53
2023/10/15 07:32:14;;;;;;;13.43;7.28;;;;;;;16.93;77.75;64749.38;5091106;28;20294;-54
2023/10/15 07:34:39;;;;;;;12.90;6.65;;;;;;;17.13;74.46;64768.84;5091441;28;20243;-55
2023/10/15 07:37:05;;;;;;;12.65;6.88;;;;;;;17.28;72.98;64785.38;5090987;28;20209;-55
2023/10/15 07:39:31;;;;;;;14.20;7.20;;;;;;;17.21;74.58;64775.13;5091290;28;20343;-55
2023/10/15 07:41:58;;;;;;;12.18;7.30;;;;;;;17.33;73.54;64791.41;5091173;28;20261;-56
2023/10/15 07:44:24;;;;;;;16.50;7.13;;;;;;;17.52;71.32;64811.84;5090744;28;20216;-54
2023/10/15 07:46:52;;;;;;;12.55;6.72;;;;;;;17.62;71.16;64820.31;5090769;28;20261;-53
2023/10/15 07:49:18;;;;;;;11.57;6.70;;;;;;;17.95;69.16;64861.78;5091097;28;20204;-52
2023/10/15 07:51:44;;;;;;;9.13;5.95;;;;;;;17.97;68.58;64858.91;5091002;28;20196;-53
2023/10/15 07:54:09;;;;;;;9.65;6.45;;;;;;;17.80;70.29;64842.69;5087849;22;20618;-52
2023/10/15 07:56:35;;;;;;;13.43;5.88;;;;;;;18.46;90.26;64911.84;5070612;28;20210;-52
2023/10/15 07:59:05;;;;;;;11.32;6.47;;;;;;;19.10;91.91;64985.00;5071652;28;20283;-52
2023/10/15 08:01:31;;;;;;;14.63;7.28;;;;;;;19.49;76.83;65024.97;5077216;28;20261;-52
2023/10/15 08:03:59;;;;;;;14.60;6.68;;;;;;;19.68;71.20;65045.94;5077498;28;20262;-54
2023/10/15 08:06:25;;;;;;;12.70;6.25;;;;;;;20.06;82.57;65088.47;5077178;28;20196;-53
2023/10/15 08:08:50;;;;;;;11.13;6.70;;;;;;;20.35;68.73;65119.97;5077171;28;20208;-54
2023/10/15 08:11:16;;;;;;;13.32;6.68;;;;;;;20.31;61.91;65112.44;5077386;28;20555;-56
2023/10/15 08:13:41;;;;;;;13.13;6.05;;;;;;;20.00;60.76;65083.84;5077181;28;20293;-60
2023/10/15 08:16:08;;;;;;;16.98;6.55;;;;;;;20.02;59.66;65081.50;5077135;28;20181;-56
2023/10/15 08:18:34;;;;;;;11.88;6.63;;;;;;;20.13;59.11;65097.66;5077159;28;20315;-55
2023/10/15 08:20:59;;;;;;;11.88;5.95;;;;;;;20.09;58.07;65091.78;5075797;28;20287;-53
2023/10/15 08:23:26;;;;;;;13.60;7.20;;;;;;;20.31;58.36;65115.00;5077076;28;20303;-54
2023/10/15 08:25:52;;;;;;;13.25;5.93;;;;;;;20.43;58.48;65128.25;5075665;28;20200;-58
2023/10/15 08:28:18;;;;;;;15.80;5.88;;;;;;;20.76;60.60;65164.75;5076758;28;20269;-54
2023/10/15 08:30:43;;;;;;;12.00;5.95;;;;;;;20.96;61.83;65188.84;5076942;28;20583;-53
2023/10/15 08:33:12;;;;;;;9.93;6.13;;;;;;;21.16;58.08;65208.44;5076652;28;20759;-53
2023/10/15 08:35:40;;;;;;;11.50;5.82;;;;;;;21.38;58.29;65232.75;5076719;28;20363;-54
2023/10/15 08:38:07;;;;;;;10.10;5.30;;;;;;;21.24;52.32;65219.84;5076861;28;20255;-52
2023/10/15 08:40:39;;;;;;;8.65;4.90;;;;;;;21.68;54.51;65263.38;5076711;28;20207;-55
2023/10/15 08:43:26;;;;;;;14.15;4.93;;;;;;;21.78;52.02;65277.00;5076773;28;20231;-53
2023/10/15 08:45:52;;;;;;;14.25;5.43;;;;;;;22.21;54.50;65322.03;5076924;28;20261;-54
2023/10/15 08:48:19;;;;;;;14.88;4.75;;;;;;;22.60;50.89;65366.69;5076619;28;20706;-57
2023/10/15 08:50:46;;;;;;;8.05;5.60;;;;;;;22.71;52.00;65378.88;5076596;28;20329;-53
2023/10/15 08:53:13;;;;;;;14.07;6.05;;;;;;;22.89;52.49;65401.38;5076674;28;20212;-53
2023/10/15 08:55:41;;;;;;;8.35;5.00;;;;;;;22.41;48.25;65349.31;5075335;28;20205;-54
2023/10/15 08:58:09;;;;;;;17.35;6.03;;;;;;;22.00;48.32;65301.38;5076737;28;20752;-54
2023/10/15 09:00:38;;;;;;;12.75;5.30;;;;;;;21.63;49.92;65257.84;5075486;28;20208;-54
2023/10/15 09:03:05;;;;;;;10.90;5.30;;;;;;;21.81;49.09;65279.78;5076686;28;20214;-54
2023/10/15 09:05:40;;;;;;;17.73;6.35;;;;;;;22.24;46.53;65329.94;5076524;28;20227;-55
2023/10/15 09:08:07;;;;;;;10.45;5.00;;;;;;;22.16;48.74;65321.63;5076480;28;20204;-54
2023/10/15 09:10:40;;;;;;;13.50;5.65;;;;;;;22.47;47.56;65353.41;5073592;28;20232;-55
2023/10/15 09:13:14;;;;;;;10.68;5.55;;;;;;;22.75;48.61;65381.28;5072952;28;20216;-54
2023/10/15 09:15:45;;;;;;;9.38;5.40;;;;;;;22.80;46.41;65389.41;5073260;28;20200;-57
2023/10/15 09:18:11;;;;;;;9.30;5.63;;;;;;;23.30;46.66;65442.22;5073278;28;20287;-54
2023/10/15 09:20:42;;;;;;;11.02;5.40;;;;;;;23.65;47.40;65482.47;5071966;28;20239;-54
2023/10/15 09:23:09;;;;;;;7.70;5.38;;;;;;;24.34;47.02;65558.44;5073120;28;20208;-56
2023/10/15 09:25:36;;;;;;;11.60;5.28;;;;;;;24.95;47.92;65624.09;5071643;28;20197;-53
2023/10/15 09:28:02;;;;;;;10.45;6.38;;;;;;;25.39;45.23;65672.34;5054750;28;20213;-53
2023/10/15 09:30:31;;;;;;;13.10;5.93;;;;;;;25.46;43.66;65685.31;5072893;28;20236;-54
2023/10/15 09:32:57;;;;;;;7.50;5.50;;;;;;;24.98;42.39;65624.28;5072697;28;20296;-54
2023/10/15 09:35:24;;;;;;;9.57;5.78;;;;;;;25.23;41.82;65654.06;5071837;28;20634;-54
2023/10/15 09:37:53;;;;;;;9.82;5.40;;;;;;;25.48;40.67;65684.97;5072623;28;20262;-54
2023/10/15 09:40:43;;;;;;;11.48;5.93;;;;;;;24.09;42.69;65531.84;5071808;28;20212;-54
2023/10/15 09:43:05;;;;;;;10.57;5.70;;;;;;;24.74;43.10;65603.38;5072254;28;20316;-53
2023/10/15 09:45:31;;;;;;;10.23;5.60;;;;;;;24.33;41.61;65554.75;5072623;28;20667;-54
2023/10/15 09:47:59;;;;;;;12.93;5.88;;;;;;;24.44;43.37;65572.09;5071216;28;20602;-53
2023/10/15 09:50:32;;;;;;;11.00;5.68;;;;;;;24.69;44.40;65597.81;5071106;28;20197;-53
2023/10/15 09:53:09;;;;;;;11.10;5.32;;;;;;;24.98;42.78;65630.00;5055041;28;20220;-53
2023/10/15 09:55:35;;;;;;;13.38;5.65;;;;;;;25.46;42.71;65679.59;5072524;28;20253;-57
2023/10/15 09:58:05;;;;;;;14.05;5.85;;;;;;;26.09;42.99;65752.16;5071118;28;20222;-53
2023/10/15 10:01:09;;;;;;;11.52;6.85;;;;;;;25.49;40.99;65686.06;5071276;28;20399;-54
2023/10/15 10:03:52;;;;;;;7.75;4.63;;;;;;;25.48;40.67;65684.41;5071834;28;20290;-53
2023/10/15 10:06:33;;;;;;;10.77;5.47;;;;;;;26.08;41.12;65750.50;5070796;28;20873;-53
2023/10/15 10:09:16;;;;;;;8.25;5.35;;;;;;;25.60;40.67;65698.28;5072172;28;20209;-53
2023/10/15 10:11:45;;;;;;;14.13;5.72;;;;;;;24.89;41.22;65619.47;5072340;28;20203;-56
2023/10/15 10:14:23;;;;;;;6.95;5.22;;;;;;;25.26;41.45;65655.34;5070656;28;20706;-53
2023/10/15 10:16:50;;;;;;;13.77;5.70;;;;;;;25.05;41.50;65634.63;5072127;28;20686;-54
2023/10/15 10:19:17;;;;;;;10.10;5.30;;;;;;;24.93;41.54;65621.88;5071283;28;20618;-54
2023/10/15 10:21:47;;;;;;;14.55;5.40;;;;;;;25.14;41.14;65647.22;5071913;28;20690;-53
2023/10/15 10:24:15;;;;;;;12.35;6.13;;;;;;;25.56;41.14;65690.69;5072408;28;20201;-54
2023/10/15 10:26:41;;;;;;;8.52;5.45;;;;;;;26.38;40.79;65781.22;5071240;28;20215;-55
2023/10/15 10:29:09;;;;;;;10.55;6.05;;;;;;;26.69;39.05;65817.69;5071087;28;20208;-54
2023/10/15 10:31:36;;;;;;;10.20;5.25;;;;;;;27.15;39.29;65864.22;5071789;28;20208;-54
2023/10/15 10:34:03;;;;;;;8.77;4.93;;;;;;;27.51;37.87;65906.31;5072033;28;20217;-52
2023/10/15 10:36:30;;;;;;;13.95;5.18;;;;;;;27.42;37.65;65896.28;5070528;28;20220;-53
2023/10/15 10:39:10;;;;;;;10.18;5.65;;;;;;;27.29;38.41;65884.41;5072377;28;20220;-55
2023/10/15 10:41:49;;;;;;;9.93;5.22;;;;;;;27.29;37.81;65882.38;5070716;28;20820;-55
2023/10/15 10:44:23;;;;;;;15.40;5.32;;;;;;;27.22;38.38;65872.00;5072268;28;20216;-56
2023/10/15 10:46:52;;;;;;;13.15;5.38;;;;;;;26.28;38.07;65772.72;5070253;28;20204;-52
2023/10/15 10:49:27;;;;;;;8.60;5.30;;;;;;;25.99;38.72;65741.03;5070719;28;20204;-52
2023/10/15 10:52:17;;;;;;;11.98;5.70;;;;;;;26.02;39.49;65744.34;5071689;28;20635;-52
2023/10/15 10:54:45;;;;;;;14.15;5.35;;;;;;;26.06;38.48;65746.22;5071804;28;20220;-51
2023/10/15 10:57:11;;;;;;;9.25;5.05;;;;;;;26.39;38.25;65782.91;5070144;28;20240;-53
2023/10/15 10:59:38;;;;;;;8.93;4.85;;;;;;;26.74;38.72;65820.69;5071342;28;20239;-52
2023/10/15 11:02:13;;;;;;;9.00;5.05;;;;;;;26.66;38.03;65814.38;5071258;28;20209;-53
2023/10/15 11:04:40;;;;;;;9.88;4.90;;;;;;;26.28;38.19;65772.72;5070283;28;20589;-55
2023/10/15 11:07:07;;;;;;;8.82;4.80;;;;;;;26.19;38.37;65760.69;5071236;28;20274;-53
2023/10/15 11:09:37;;;;;;;9.77;4.85;;;;;;;25.70;37.85;65706.25;5071662;28;20205;-50
2023/10/15 11:12:06;;;;;;;7.93;4.25;;;;;;;26.44;37.32;65791.03;5071158;28;20212;-51
2023/10/15 11:14:33;;;;;;;6.53;4.35;;;;;;;26.51;36.00;65798.81;5071484;28;20220;-52
2023/10/15 11:16:58;;;;;;;7.22;3.95;;;;;;;26.87;36.54;65837.72;5071121;28;20212;-52
2023/10/15 11:19:30;;;;;;;8.88;3.72;;;;;;;26.88;36.48;65841.41;5071286;28;20682;-54
2023/10/15 11:21:56;;;;;;;6.57;3.63;;;;;;;27.11;35.46;65864.41;5071181;28;20694;-53
2023/10/15 11:24:23;;;;;;;8.55;4.18;;;;;;;27.13;35.56;65866.63;5070797;28;20212;-54
2023/10/15 11:26:50;;;;;;;7.22;4.07;;;;;;;26.87;35.24;65837.72;5071072;28;20200;-53
2023/10/15 11:29:18;;;;;;;7.30;4.68;;;;;;;26.68;35.68;65817.16;5071440;28;20224;-52
2023/10/15 11:31:56;;;;;;;6.10;4.10;;;;;;;26.35;35.74;65781.03;5070865;28;20200;-53
2023/10/15 11:34:24;;;;;;;8.27;3.72;;;;;;;26.31;36.30;65776.59;5070027;28;20377;-54
2023/10/15 11:36:55;;;;;;;7.35;4.15;;;;;;;26.36;35.98;65781.59;5069696;28;20250;-53
2023/10/15 11:39:37;;;;;;;6.55;4.22;;;;;;;26.35;35.68;65781.03;5071178;28;20212;-53
2023/10/15 11:42:06;;;;;;;9.63;3.80;;;;;;;26.86;35.97;65837.19;5070784;28;20336;-53
2023/10/15 11:44:33;;;;;;;5.97;3.85;;;;;;;26.67;35.32;65816.03;5070815;28;20205;-51
2023/10/15 11:47:08;;;;;;;12.70;4.40;;;;;;;26.90;36.87;65838.47;5070802;28;20232;-52
2023/10/15 11:49:38;;;;;;;8.60;4.10;;;;;;;27.31;36.21;65887.19;5071268;28;20204;-54
2023/10/15 11:52:11;;;;;;;10.85;4.35;;;;;;;27.21;34.83;65870.34;5070714;28;20208;-54